KTHA/THA METAR and TAF weather

Enter ICAO airport designator
Station Type Date Time Source
KTHA METAR 2021/05/14 12:35 UTC NOAA

KTHA 141235Z AUTO 00000KT 10SM CLR 10/05 A3029 RMK A01


Station Type Date Time Source
KTHA Decoded METAR 2021/05/14 12:35 UTC NOAA

Station name not available
May 14, 2021 - 08:35 AM EDT / 2021.05.14 1235 UTC
Wind: Calm:0
Visibility: 10 mile(s):0
Sky conditions: clear
Temperature: 50 F (10 C)
Dew Point: 41 F (5 C)
Relative Humidity: 71%
Pressure (altimeter): 30.29 in. Hg (1025 hPa)
ob: KTHA 141235Z AUTO 00000KT 10SM CLR 10/05 A3029 RMK A01
cycle: 12

Station Type Date Time Source
KTHA TAF UTC NOAA

Error!

Example: see airport list